Pakpattan Weather



Pakpattan's Current Weather

Temprature 37.28o scattered clouds

scattered clouds

Rain: 0 %

Min Temprature37.28o
Max Temprature37.28o
Humidity18
Wind Speed3.22 m/h
Sun Rise05:17:23
Sun Set18:48:31
Current Time: 08-May-2021 15:51:29
Lat/Lon: 30.341, 73.3866




Pakpattan's Geo Location



Pakpattan's Weather Forecast

Time Overall Temp Min Temp Max Temp Humidity Wind Speed Rain
08-May-2021 (Sat)
17:00:00 light rain 29.310 29.310 29.310 39 11.18 m/h 49 %
20:00:00 light rain 29.040 28.490 29.040 39 3.21 m/h 87 %
23:00:00 light rain 30.110 30.110 30.510 31 3.96 m/h 50 %
09-May-2021 (Sun)
02:00:00 broken clouds 28.950 28.950 28.950 32 2.26 m/h 0 %
05:00:00 broken clouds 27.870 27.870 27.870 32 2.02 m/h 0 %
08:00:00 broken clouds 33.440 33.440 33.440 23 2.64 m/h 0 %
11:00:00 broken clouds 39.080 39.080 39.080 14 4.57 m/h 0 %
14:00:00 broken clouds 41.430 41.430 41.430 10 3.01 m/h 0 %
17:00:00 light rain 39.130 39.130 39.130 13 1.99 m/h 40 %
20:00:00 light rain 33.200 33.200 33.200 21 5.15 m/h 11 %
23:00:00 broken clouds 30.010 30.010 30.010 31 6.7 m/h 0 %
10-May-2021 (Mon)
02:00:00 clear sky 28.370 28.370 28.370 34 2.99 m/h 0 %
05:00:00 clear sky 27.740 27.740 27.740 34 2.98 m/h 0 %
08:00:00 broken clouds 33.410 33.410 33.410 23 3.78 m/h 0 %
11:00:00 broken clouds 39.150 39.150 39.150 14 1.61 m/h 0 %
14:00:00 broken clouds 42.620 42.620 42.620 10 1.43 m/h 0 %
17:00:00 broken clouds 38.040 38.040 38.040 14 5.06 m/h 0 %
20:00:00 overcast clouds 33.980 33.980 33.980 22 4.56 m/h 0 %
23:00:00 broken clouds 31.660 31.660 31.660 25 5.04 m/h 0 %
11-May-2021 (Tue)
02:00:00 overcast clouds 29.920 29.920 29.920 31 2.95 m/h 0 %
05:00:00 overcast clouds 28.750 28.750 28.750 35 3.64 m/h 0 %
08:00:00 scattered clouds 34.260 34.260 34.260 23 3.06 m/h 0 %
11:00:00 scattered clouds 39.920 39.920 39.920 15 2.95 m/h 0 %
14:00:00 clear sky 42.910 42.910 42.910 11 4.26 m/h 0 %
17:00:00 light rain 26.780 26.780 26.780 50 8.05 m/h 298 %
20:00:00 light rain 32.020 32.020 32.020 28 6.35 m/h 89 %
23:00:00 overcast clouds 30.290 30.290 30.290 34 7.17 m/h 0 %
12-May-2021 (Wed)
02:00:00 light rain 29.900 29.900 29.900 35 0.95 m/h 10 %
05:00:00 overcast clouds 29.300 29.300 29.300 36 2.14 m/h 0 %
08:00:00 overcast clouds 32.750 32.750 32.750 28 1.78 m/h 0 %
11:00:00 overcast clouds 37.520 37.520 37.520 19 3.34 m/h 0 %
14:00:00 broken clouds 38.300 38.300 38.300 19 4.49 m/h 0 %
17:00:00 moderate rain 22.390 22.390 22.390 66 11.09 m/h 687 %
20:00:00 moderate rain 25.050 25.050 25.050 54 4.55 m/h 451 %
23:00:00 overcast clouds 26.480 26.480 26.480 52 5.91 m/h 0 %
13-May-2021 (Thu)
02:00:00 overcast clouds 25.000 25.000 25.000 60 3.25 m/h 0 %
05:00:00 overcast clouds 24.840 24.840 24.840 63 1.49 m/h 0 %
08:00:00 broken clouds 27.610 27.610 27.610 51 4.13 m/h 0 %
11:00:00 scattered clouds 32.400 32.400 32.400 35 4.05 m/h 0 %
14:00:00 few clouds 35.420 35.420 35.420 26 2.81 m/h 0 %

Famous Cities (60)